Boissevain, Canada
Current Conditions -  °F | °C
As of 1:15 AM on Saturday 20 Dec 2014 (Local Time) from K06D Reporting Station
Haze Haze  
Wind Chill: 17°   Ceiling: 200
Heat Index: 23°   Visibility: 2.5mi
Dew Point: 23°   Wind: 5mph
Humidity: 100%   Direction: 220°SW
Pressure: 29.95"   Gusts: NA
Location:  49.23°N, 100.05°W
Report Text: K06D 200715Z AUTO 22004KT 2 1/2SM BR OVC002 M05/M05 A2995 RMK AO2
Loading
Personal Weather Stations






























Interactive Weather Map New forecast layout! Learn more

10-Day Weather Forecast

Advertisements
Track Severe Weather on mobile